Frenzy — SA9057 — position and weather

sailwx.info

Track history (hours):
 
Tides and Currents Weather Stations Pressure Air Temp Water Temp Dewpoint Dewpoint Depression Visibility Wind Speed Wind Dir Waves Ship Positions

Frenzy

Last reported at 2014-Jul-30 10:21 UTC. Time now 2014-Aug-01 01:54 UTC.
Position N 55°17' E 014°35'.

Length 11 m.

Type: Pleasure craft. MMSI: 265610080.

Date/timePositionNaut miles runAvg speedWind from/ knotsBaromVisibWave heightAir tempDewpointWater temp
2014-Jul-30 10:21N 55°17' E 014°35'5 6.5
2014-Jul-30 09:33N 55°12' E 014°39'6 5.9
2014-Jul-30 08:33N 55°06' E 014°41'1 0.1
2014-Jul-29 17:31N 55°06' E 014°42'0 0.0
2014-Jul-29 16:31N 55°06' E 014°42'0 0.0
2014-Jul-29 15:25N 55°06' E 014°42'0 0.0
2014-Jul-29 14:31N 55°06' E 014°42'0 0.0
2014-Jul-29 13:33N 55°06' E 014°42'4 4.2
2014-Jul-29 12:33N 55°10' E 014°40'5 4.7
2014-Jul-29 11:33N 55°14' E 014°42'5 0.2
2014-Jul-28 13:23N 55°18' E 014°47'5 6.3
2014-Jul-28 12:33N 55°22' E 014°40'6 6.2
2014-Jul-28 11:33N 55°26' E 014°32'6 5.7
2014-Jul-28 10:28N 55°31' E 014°25'  
2014-Jul-21 06:31N 56°10' E 015°36'0 0.0
2014-Jul-20 11:28N 56°10' E 015°36'0 0.2
2014-Jul-20 10:33N 56°10' E 015°36'  
Track history (hours):
 
Tides and Currents Weather Stations Pressure Air Temp Water Temp Dewpoint Dewpoint Depression Visibility Wind Speed Wind Dir Waves Ship Positions

Frenzy

Last reported at 2014-Jul-30 10:21 UTC. Time now 2014-Aug-01 01:54 UTC.
Position N 55°17' E 014°35'.

Length 11 m.

Type: Pleasure craft. MMSI: 265610080.

Date/timePositionNaut miles runAvg speedWind from/ knotsBaromVisibWave heightAir tempDewpointWater temp
2014-Jul-30 10:21N 55°17' E 014°35'5 6.5
2014-Jul-30 09:33N 55°12' E 014°39'6 5.9
2014-Jul-30 08:33N 55°06' E 014°41'1 0.1
2014-Jul-29 17:31N 55°06' E 014°42'0 0.0
2014-Jul-29 16:31N 55°06' E 014°42'0 0.0
2014-Jul-29 15:25N 55°06' E 014°42'0 0.0
2014-Jul-29 14:31N 55°06' E 014°42'0 0.0
2014-Jul-29 13:33N 55°06' E 014°42'4 4.2
2014-Jul-29 12:33N 55°10' E 014°40'5 4.7
2014-Jul-29 11:33N 55°14' E 014°42'5 0.2
2014-Jul-28 13:23N 55°18' E 014°47'5 6.3
2014-Jul-28 12:33N 55°22' E 014°40'6 6.2
2014-Jul-28 11:33N 55°26' E 014°32'6 5.7
2014-Jul-28 10:28N 55°31' E 014°25'  
2014-Jul-21 06:31N 56°10' E 015°36'0 0.0
2014-Jul-20 11:28N 56°10' E 015°36'0 0.2
2014-Jul-20 10:33N 56°10' E 015°36'  

Dump ship's entire track history